createdAt,value
2022-11-07T12:20:32.219Z,20.40
2022-11-07T12:22:30.218Z,20.54
2022-11-07T12:24:28.510Z,20.76
2022-11-07T12:26:26.741Z,21.07
2022-11-07T12:28:26.021Z,21.38
2022-11-07T12:30:24.291Z,21.66
2022-11-07T12:32:22.321Z,21.92
2022-11-07T12:34:20.526Z,22.15
2022-11-07T12:36:18.879Z,22.36
2022-11-07T12:38:16.945Z,22.53
2022-11-07T12:40:14.958Z,22.67
2022-11-07T12:42:13.195Z,22.80
2022-11-07T12:44:11.707Z,22.90
2022-11-07T12:46:09.905Z,22.99
2022-11-07T12:48:15.630Z,23.05
2022-11-07T12:50:13.831Z,23.12
2022-11-07T12:52:12.067Z,23.18
2022-11-07T12:54:16.253Z,23.23
2022-11-07T12:56:14.795Z,23.28
2022-11-07T12:58:12.762Z,23.31
2022-11-07T13:00:11.875Z,23.35
2022-11-07T13:02:10.005Z,23.38
2022-11-07T13:04:08.289Z,23.40
2022-11-07T13:06:06.793Z,23.42
2022-11-07T13:08:04.804Z,23.45
2022-11-07T13:10:02.805Z,23.46
2022-11-07T13:12:01.049Z,23.49
2022-11-07T13:13:59.049Z,23.50
2022-11-07T13:16:26.676Z,23.53
2022-11-07T13:18:15.307Z,23.54
2022-11-07T13:20:13.329Z,23.56
2022-11-07T13:22:11.539Z,23.59
2022-11-07T13:24:09.573Z,23.59
2022-11-07T13:26:32.431Z,23.59
2022-11-07T13:28:25.927Z,23.62
2022-11-07T13:30:24.174Z,23.61
2022-11-07T13:32:22.524Z,23.62
2022-11-07T13:34:20.543Z,23.64
2022-11-07T13:36:18.771Z,23.64
2022-11-07T13:38:17.057Z,23.64
2022-11-07T13:40:15.320Z,23.64
2022-11-07T13:42:13.561Z,23.65
2022-11-07T13:44:11.792Z,23.66
2022-11-07T13:46:10.024Z,23.65
2022-11-07T13:48:08.231Z,23.64
2022-11-07T13:50:06.323Z,23.65
2022-11-07T13:52:04.389Z,23.64
2022-11-07T13:54:02.587Z,23.65
2022-11-07T13:56:00.569Z,23.64
2022-11-07T13:57:58.599Z,23.64
2022-11-07T14:51:00.143Z,22.99
2022-11-07T14:52:58.141Z,23.19
2022-11-07T14:54:56.271Z,23.47
2022-11-07T14:56:54.363Z,23.82
2022-11-07T14:58:52.707Z,24.13
2022-11-07T15:00:50.691Z,24.44
2022-11-07T15:02:48.824Z,24.70
2022-11-07T15:04:47.042Z,24.92
2022-11-07T15:06:45.216Z,25.10
2022-11-07T15:08:43.561Z,25.22
2022-11-07T15:10:41.998Z,25.34
2022-11-07T15:12:39.991Z,25.40
2022-11-07T15:14:38.374Z,25.46
2022-11-07T15:16:36.546Z,25.50
2022-11-07T15:18:34.725Z,25.51
2022-11-07T15:20:32.830Z,25.52
2022-11-07T15:22:31.231Z,25.52
2022-11-07T15:24:29.265Z,25.51
2022-11-07T15:26:27.470Z,25.50
2022-11-07T15:28:25.513Z,25.46
2022-11-07T15:30:23.930Z,25.43
2022-11-07T15:32:21.895Z,25.41
2022-11-07T15:34:39.067Z,25.37
2022-11-07T15:36:41.102Z,25.32
2022-11-07T15:38:39.380Z,25.30
2022-11-07T15:40:37.557Z,25.27
2022-11-07T15:42:35.780Z,25.23
2022-11-07T15:44:34.017Z,25.19
2022-11-07T15:46:32.271Z,25.16
2022-11-07T15:48:30.256Z,25.11
2022-11-07T15:50:28.277Z,25.08
2022-11-07T15:52:26.469Z,25.03
2022-11-07T15:54:25.600Z,25.00
2022-11-07T15:56:23.952Z,24.95
2022-11-07T15:58:22.093Z,24.92
2022-11-07T16:00:20.223Z,24.88
2022-11-07T16:02:18.568Z,24.85
2022-11-07T16:04:16.958Z,24.84
2022-11-07T16:06:15.046Z,24.79
2022-11-07T16:08:13.469Z,24.75
2022-11-07T16:10:11.948Z,24.73
2022-11-07T16:12:10.299Z,24.69
2022-11-07T16:14:38.080Z,24.66
2022-11-07T16:16:26.354Z,24.62
2022-11-07T16:18:24.452Z,24.59
2022-11-07T16:20:22.680Z,24.54
2022-11-07T16:22:20.896Z,24.51
2022-11-07T16:24:18.989Z,24.48
2022-11-07T16:26:16.990Z,24.44
2022-11-07T16:28:15.425Z,24.40
2022-11-07T16:30:13.660Z,24.37
2022-11-07T16:32:16.458Z,24.35
2022-11-07T16:34:15.869Z,24.31
2022-11-07T16:36:13.890Z,24.28
2022-11-07T16:38:11.906Z,24.24
2022-11-07T16:40:09.947Z,24.21
2022-11-07T16:42:07.959Z,24.17
2022-11-07T16:44:06.039Z,24.13
2022-11-07T16:46:04.372Z,24.11
2022-11-07T16:48:02.381Z,24.07
2022-11-07T16:50:00.423Z,24.04
2022-11-07T16:51:58.561Z,24.00
2022-11-07T16:53:56.816Z,23.98
2022-11-07T16:55:54.853Z,23.94
2022-11-07T16:57:52.892Z,23.91
2022-11-07T16:59:52.396Z,23.88
2022-11-07T17:01:50.959Z,23.85
2022-11-07T17:03:49.286Z,23.82
2022-11-07T17:05:47.519Z,23.79
2022-11-07T17:07:45.483Z,23.76
2022-11-07T17:09:43.565Z,23.72
2022-11-07T17:11:41.799Z,23.71
2022-11-07T17:13:40.006Z,23.68
2022-11-07T17:15:38.175Z,23.64
2022-11-07T17:17:36.315Z,23.63
2022-11-07T17:19:34.345Z,23.60
2022-11-07T17:21:32.760Z,23.58
2022-11-07T17:23:31.044Z,23.54
2022-11-07T17:25:29.408Z,23.52
2022-11-07T17:27:27.499Z,23.51
2022-11-07T17:29:25.924Z,23.50
2022-11-07T17:31:24.184Z,23.47
2022-11-07T17:33:22.425Z,23.46
2022-11-07T17:35:32.227Z,23.47
2022-11-07T17:37:30.794Z,23.44
2022-11-07T17:39:28.965Z,23.43
2022-11-07T17:41:29.881Z,23.42
2022-11-07T17:43:27.916Z,23.41
2022-11-07T17:45:25.981Z,23.42
2022-11-07T17:47:24.357Z,23.41
2022-11-07T17:49:23.208Z,23.41
2022-11-07T17:51:21.203Z,23.40
2022-11-07T17:53:19.264Z,23.39
2022-11-07T17:55:17.297Z,23.39
2022-11-07T17:57:15.337Z,23.37
2022-11-07T17:59:13.509Z,23.37
2022-11-07T18:01:11.546Z,23.38
2022-11-07T18:03:09.723Z,23.36
2022-11-07T18:05:07.880Z,23.35
2022-11-07T18:07:05.927Z,23.35
2022-11-07T18:09:04.111Z,23.34
2022-11-07T18:11:02.130Z,23.31
2022-11-07T18:13:00.129Z,23.31
2022-11-07T18:14:58.362Z,23.31
2022-11-07T18:16:56.305Z,23.29
2022-11-07T18:18:54.302Z,23.28
2022-11-07T18:20:52.308Z,23.27
2022-11-07T18:22:50.360Z,23.26
2022-11-07T18:24:48.600Z,23.25
2022-11-07T18:26:46.621Z,23.24
2022-11-07T18:28:44.719Z,23.22
2022-11-07T18:30:42.738Z,23.21
2022-11-07T18:32:40.771Z,23.19
2022-11-07T18:34:38.797Z,23.17
2022-11-07T18:36:38.377Z,23.16
2022-11-07T18:38:36.457Z,23.15
2022-11-07T18:40:34.719Z,23.14
2022-11-07T18:42:32.759Z,23.12
2022-11-07T18:44:30.765Z,23.13
2022-11-07T18:46:28.750Z,23.12
2022-11-07T18:48:26.727Z,23.12
2022-11-07T18:50:24.749Z,23.11
2022-11-07T18:52:22.781Z,23.10
2022-11-07T18:54:22.295Z,23.11
2022-11-07T18:56:20.543Z,23.09
2022-11-07T18:58:18.824Z,23.10
2022-11-07T19:00:18.100Z,23.10
2022-11-07T19:02:17.306Z,23.10
2022-11-07T19:04:15.776Z,23.09
2022-11-07T19:06:13.875Z,23.10
2022-11-07T19:08:12.068Z,23.10
2022-11-07T19:10:10.115Z,23.10
2022-11-07T19:12:08.477Z,23.11
2022-11-07T19:14:06.497Z,23.11
2022-11-07T19:16:04.907Z,23.12
2022-11-07T19:18:02.883Z,23.12
2022-11-07T19:20:01.989Z,23.12
2022-11-07T19:22:00.019Z,23.13
2022-11-07T19:23:58.313Z,23.14
2022-11-07T19:25:56.400Z,23.13
2022-11-07T19:27:55.528Z,23.13
2022-11-07T19:29:53.606Z,23.13
2022-11-07T19:31:51.662Z,23.12
2022-11-07T19:33:49.662Z,23.12
2022-11-07T19:35:47.698Z,23.12
2022-11-07T19:37:45.683Z,23.12
2022-11-07T19:39:43.702Z,23.12
2022-11-07T19:41:41.949Z,23.12
2022-11-07T19:43:40.081Z,23.11
2022-11-07T19:45:38.057Z,23.10
2022-11-07T19:47:36.067Z,23.09
2022-11-07T19:49:34.087Z,23.08
2022-11-07T19:51:32.076Z,23.09
2022-11-07T19:53:30.160Z,23.07
2022-11-07T19:55:28.608Z,23.07
2022-11-07T19:57:26.627Z,23.06
2022-11-07T19:59:24.659Z,23.05
2022-11-07T20:01:22.951Z,23.05
2022-11-07T20:03:21.529Z,23.03
2022-11-07T20:05:24.293Z,23.03
2022-11-07T20:07:22.385Z,23.00
2022-11-07T20:09:20.345Z,23.02
2022-11-07T20:11:18.589Z,23.00
2022-11-07T20:13:17.060Z,23.01
2022-11-07T20:15:15.543Z,22.99
2022-11-07T20:17:13.583Z,22.99
2022-11-07T20:19:11.865Z,23.00
2022-11-07T20:21:12.789Z,22.99
2022-11-07T20:23:10.905Z,22.99
2022-11-07T20:25:08.926Z,22.99
2022-11-07T20:27:07.249Z,23.00
2022-11-07T20:29:05.341Z,22.98
2022-11-07T20:31:03.364Z,22.98
2022-11-07T20:33:01.602Z,22.99
2022-11-07T20:34:59.638Z,22.99
2022-11-07T20:36:57.678Z,22.99
2022-11-07T20:38:55.887Z,22.99
2022-11-07T20:40:53.922Z,22.99
2022-11-07T20:42:51.940Z,23.00
2022-11-07T20:44:50.159Z,23.00
2022-11-07T20:46:48.296Z,23.00
2022-11-07T20:48:47.106Z,23.01
2022-11-07T20:50:45.524Z,23.01
2022-11-07T20:52:43.731Z,23.01
2022-11-07T20:54:41.776Z,23.02
2022-11-07T20:56:40.282Z,23.03
2022-11-07T20:58:38.580Z,23.02
2022-11-07T21:00:36.678Z,23.02
2022-11-07T21:02:35.040Z,23.03
2022-11-07T21:04:50.103Z,23.02
2022-11-07T21:06:51.306Z,23.01
2022-11-07T21:08:49.391Z,23.02
2022-11-07T21:10:47.408Z,23.01
2022-11-07T21:12:45.626Z,23.01
2022-11-07T21:14:43.835Z,23.00
2022-11-07T21:16:42.258Z,22.99
2022-11-07T21:18:40.723Z,22.99
2022-11-07T21:20:38.909Z,22.99
2022-11-07T21:22:37.137Z,22.98
2022-11-07T21:24:35.144Z,22.96
2022-11-07T21:26:33.430Z,22.96
2022-11-07T21:28:31.463Z,22.97
2022-11-07T21:30:29.643Z,22.95
2022-11-07T21:32:28.073Z,22.94
2022-11-07T21:34:26.328Z,22.94
2022-11-07T21:36:24.566Z,22.92
2022-11-07T21:38:22.990Z,22.92
2022-11-07T21:40:21.044Z,22.93
2022-11-07T21:42:19.327Z,22.91
2022-11-07T21:44:17.350Z,22.91
2022-11-07T21:46:15.466Z,22.90
2022-11-07T21:48:13.501Z,22.90
2022-11-07T21:50:38.327Z,22.92
2022-11-07T21:52:32.612Z,22.91
2022-11-07T21:54:30.637Z,22.90
2022-11-07T21:56:28.649Z,22.91
2022-11-07T21:58:26.701Z,22.91
2022-11-07T22:00:24.719Z,22.92
2022-11-07T22:02:22.880Z,22.91
2022-11-07T22:04:20.990Z,22.92
2022-11-07T22:06:20.017Z,22.93
2022-11-07T22:08:23.450Z,22.93
2022-11-07T22:10:21.847Z,22.94
2022-11-07T22:12:20.057Z,22.95
2022-11-07T22:14:18.081Z,22.95
2022-11-07T22:16:16.186Z,22.96
2022-11-07T22:18:14.225Z,22.98
2022-11-07T22:20:12.258Z,22.99
2022-11-07T22:22:10.273Z,22.99
2022-11-07T22:24:08.306Z,22.99
2022-11-07T22:26:06.330Z,23.00
2022-11-07T22:28:04.537Z,23.00
2022-11-07T22:30:02.619Z,23.00
2022-11-07T22:32:00.637Z,23.00
2022-11-07T22:33:59.035Z,22.99
2022-11-07T22:35:57.947Z,22.99
2022-11-07T22:37:56.182Z,22.99
2022-11-07T22:39:54.211Z,22.99
2022-11-07T22:41:52.176Z,22.99
2022-11-07T22:43:50.200Z,22.98
2022-11-07T22:45:48.240Z,22.98
2022-11-07T22:47:46.570Z,22.97
2022-11-07T22:49:44.920Z,22.96
2022-11-07T22:51:42.917Z,22.95
2022-11-07T22:53:40.896Z,22.95
2022-11-07T22:55:38.916Z,22.94
2022-11-07T22:57:37.133Z,22.94
2022-11-07T22:59:35.459Z,22.90
2022-11-07T23:01:33.735Z,22.93
2022-11-07T23:03:31.791Z,22.92
2022-11-07T23:05:29.814Z,22.90
2022-11-07T23:07:27.822Z,22.90
2022-11-07T23:09:25.872Z,22.88
2022-11-07T23:13:41.928Z,22.86
2022-11-07T23:15:39.907Z,22.85
2022-11-07T23:17:38.079Z,22.85
2022-11-07T23:19:36.111Z,22.83
2022-11-07T23:21:34.446Z,22.81
2022-11-07T23:23:32.867Z,22.81
2022-11-07T23:25:31.294Z,22.80
2022-11-07T23:27:29.344Z,22.78
2022-11-07T23:29:27.354Z,22.78
2022-11-07T23:31:25.523Z,22.77
2022-11-07T23:33:23.504Z,22.77
2022-11-07T23:35:21.800Z,22.75
2022-11-07T23:37:20.164Z,22.74
2022-11-07T23:39:18.380Z,22.73
2022-11-07T23:41:16.775Z,22.72
2022-11-07T23:43:14.756Z,22.72
2022-11-07T23:45:30.839Z,22.71
2022-11-07T23:47:46.594Z,22.70
2022-11-07T23:50:02.134Z,22.68
2022-11-07T23:52:00.447Z,22.67
2022-11-07T23:54:16.306Z,22.65
2022-11-07T23:56:14.368Z,22.63
2022-11-07T23:58:30.006Z,22.63
